createdAt,value
2023-01-26T00:00:22.808Z,98.40
2023-01-26T00:02:26.755Z,98.36
2023-01-26T00:04:30.776Z,97.91
2023-01-26T00:06:36.744Z,98.19
2023-01-26T00:08:42.622Z,97.82
2023-01-26T00:10:50.650Z,97.75
2023-01-26T00:12:54.651Z,97.37
2023-01-26T00:14:58.610Z,97.24
2023-01-26T00:17:02.454Z,96.90
2023-01-26T00:19:06.986Z,96.67
2023-01-26T00:21:14.779Z,96.57
2023-01-26T00:23:20.500Z,96.67
2023-01-26T00:25:24.701Z,96.48
2023-01-26T00:27:28.545Z,96.62
2023-01-26T00:29:32.451Z,96.71
2023-01-26T00:31:36.770Z,96.78
2023-01-26T00:33:40.733Z,96.74
2023-01-26T00:35:55.425Z,96.67
2023-01-26T00:37:59.373Z,96.23
2023-01-26T00:40:05.329Z,96.44
2023-01-26T00:42:10.154Z,96.15
2023-01-26T00:44:15.135Z,96.47
2023-01-26T00:46:19.233Z,96.07
2023-01-26T00:48:24.768Z,95.88
2023-01-26T00:50:32.027Z,96.19
2023-01-26T00:52:35.770Z,96.52
2023-01-26T00:54:39.771Z,96.43
2023-01-26T00:56:45.501Z,96.22
2023-01-26T00:58:51.687Z,95.91
2023-01-26T01:00:55.523Z,96.39
2023-01-26T01:02:59.986Z,96.07
2023-01-26T01:05:03.944Z,96.40
2023-01-26T01:07:07.944Z,96.43
2023-01-26T01:09:12.036Z,96.51
2023-01-26T01:11:16.215Z,96.64
2023-01-26T01:13:21.798Z,96.64
2023-01-26T01:15:26.026Z,96.61
2023-01-26T01:17:29.779Z,96.22
2023-01-26T01:19:33.689Z,96.50
2023-01-26T01:21:37.788Z,96.32
2023-01-26T01:23:42.731Z,96.55
2023-01-26T01:25:46.880Z,96.89
2023-01-26T01:27:50.734Z,96.59
2023-01-26T01:29:56.352Z,97.03
2023-01-26T01:32:01.112Z,96.50
2023-01-26T01:34:05.383Z,97.06
2023-01-26T01:36:12.022Z,96.63
2023-01-26T01:38:16.235Z,96.38
2023-01-26T01:40:21.828Z,96.33
2023-01-26T01:42:25.907Z,96.29
2023-01-26T01:44:30.149Z,96.84
2023-01-26T01:46:37.911Z,96.26
2023-01-26T01:48:50.721Z,96.63
2023-01-26T01:50:59.092Z,96.24
2023-01-26T01:53:03.077Z,96.00
2023-01-26T01:55:12.145Z,95.61
2023-01-26T01:57:28.008Z,95.96
2023-01-26T01:59:34.365Z,95.49
2023-01-26T02:01:43.350Z,95.97
2023-01-26T02:03:52.159Z,95.23
2023-01-26T02:06:01.253Z,95.39
2023-01-26T02:08:06.433Z,95.77
2023-01-26T02:10:20.780Z,95.37
2023-01-26T02:12:29.096Z,95.87
2023-01-26T02:14:34.700Z,95.83
2023-01-26T02:16:40.270Z,95.56
2023-01-26T02:18:46.201Z,95.40
2023-01-26T02:20:53.417Z,95.55
2023-01-26T02:23:04.650Z,95.56
2023-01-26T02:25:20.497Z,95.25
2023-01-26T02:27:25.662Z,95.25
2023-01-26T02:29:29.374Z,95.31
2023-01-26T02:31:33.420Z,95.34
2023-01-26T02:33:37.253Z,95.42
2023-01-26T02:35:42.548Z,95.32
2023-01-26T02:37:46.449Z,95.35
2023-01-26T02:40:01.049Z,95.12
2023-01-26T02:42:22.907Z,95.69
2023-01-26T02:44:30.140Z,95.25
2023-01-26T02:46:34.199Z,95.31
2023-01-26T02:48:56.052Z,94.92
2023-01-26T02:51:00.998Z,95.08
2023-01-26T02:53:05.423Z,95.26
2023-01-26T02:55:25.617Z,95.65
2023-01-26T02:57:31.037Z,95.51
2023-01-26T02:59:37.551Z,95.67
2023-01-26T03:01:42.454Z,95.52
2023-01-26T03:03:46.326Z,95.74
2023-01-26T03:05:51.381Z,95.52
2023-01-26T03:07:55.302Z,96.04
2023-01-26T03:10:02.005Z,96.36
2023-01-26T03:12:06.834Z,96.34
2023-01-26T03:14:11.583Z,95.84
2023-01-26T03:16:20.085Z,95.75
2023-01-26T03:18:43.056Z,95.64
2023-01-26T03:21:04.181Z,95.63
2023-01-26T03:23:27.783Z,95.47
2023-01-26T03:25:49.258Z,95.62
2023-01-26T03:27:54.833Z,95.60
2023-01-26T03:30:01.449Z,95.63
2023-01-26T03:32:09.499Z,95.70
2023-01-26T03:34:14.543Z,95.45
2023-01-26T03:36:21.148Z,95.36
2023-01-26T03:38:25.595Z,95.36
2023-01-26T03:40:50.775Z,95.35
2023-01-26T03:43:13.008Z,95.30
2023-01-26T03:45:35.657Z,94.96
2023-01-26T03:47:58.940Z,95.22
2023-01-26T03:50:21.458Z,95.36
2023-01-26T03:52:43.334Z,95.01
2023-01-26T03:55:05.321Z,94.90
2023-01-26T03:57:09.002Z,95.11
2023-01-26T03:59:16.742Z,95.04
2023-01-26T04:01:29.563Z,94.74
2023-01-26T04:03:54.637Z,94.54
2023-01-26T04:06:17.549Z,94.42
2023-01-26T04:08:25.422Z,94.65
2023-01-26T04:10:35.053Z,94.73
2023-01-26T04:12:41.241Z,94.45
2023-01-26T04:15:10.845Z,94.39
2023-01-26T04:17:31.652Z,94.61
2023-01-26T04:19:54.384Z,94.44
2023-01-26T04:22:00.162Z,94.84
2023-01-26T04:24:09.917Z,94.61
2023-01-26T04:26:13.995Z,94.74
2023-01-26T04:28:17.737Z,94.49
2023-01-26T04:30:23.500Z,94.63
2023-01-26T04:32:27.353Z,94.38
2023-01-26T04:34:31.186Z,94.62
2023-01-26T04:36:36.626Z,94.50
2023-01-26T04:38:40.280Z,94.62
2023-01-26T04:40:43.907Z,94.12
2023-01-26T04:42:47.712Z,94.52
2023-01-26T04:44:52.791Z,94.55
2023-01-26T04:46:57.374Z,94.37
2023-01-26T04:49:01.156Z,94.03
2023-01-26T04:51:07.129Z,93.92
2023-01-26T04:53:12.044Z,94.10
2023-01-26T04:55:15.748Z,93.85
2023-01-26T04:57:21.266Z,93.89
2023-01-26T04:59:28.519Z,93.89
2023-01-26T05:01:36.824Z,94.12
2023-01-26T05:03:44.437Z,93.97
2023-01-26T05:05:50.619Z,94.05
2023-01-26T05:07:55.904Z,94.07
2023-01-26T05:10:03.403Z,94.01
2023-01-26T05:12:35.158Z,94.68
2023-01-26T05:14:57.499Z,94.51
2023-01-26T05:17:19.956Z,94.43
2023-01-26T05:19:30.643Z,94.53
2023-01-26T05:21:55.433Z,94.63
2023-01-26T05:23:59.946Z,94.27
2023-01-26T05:26:25.204Z,94.09
2023-01-26T05:28:35.680Z,93.82
2023-01-26T05:30:39.583Z,93.58
2023-01-26T05:32:43.250Z,93.86
2023-01-26T05:34:48.735Z,93.89
2023-01-26T05:36:52.346Z,93.81
2023-01-26T05:38:56.796Z,93.94
2023-01-26T05:41:02.965Z,94.11
2023-01-26T05:43:15.266Z,94.24
2023-01-26T05:45:35.467Z,94.25
2023-01-26T05:47:39.232Z,93.44
2023-01-26T05:49:43.720Z,94.08
2023-01-26T05:51:52.500Z,93.73
2023-01-26T05:53:55.964Z,94.13
2023-01-26T05:55:59.751Z,93.69
2023-01-26T05:58:05.354Z,93.72
2023-01-26T06:00:13.384Z,93.83
2023-01-26T06:02:19.593Z,93.96
2023-01-26T06:04:23.267Z,93.66
2023-01-26T06:06:30.114Z,93.65
2023-01-26T06:08:40.622Z,93.41
2023-01-26T06:11:12.939Z,93.39
2023-01-26T06:13:32.257Z,93.16
2023-01-26T06:15:45.378Z,92.81
2023-01-26T06:17:48.890Z,92.68
2023-01-26T06:19:53.849Z,92.21
2023-01-26T06:21:57.169Z,92.06
2023-01-26T06:24:00.842Z,92.12
2023-01-26T06:26:06.463Z,92.24
2023-01-26T06:28:10.576Z,91.87
2023-01-26T06:30:14.779Z,92.01
2023-01-26T06:32:19.479Z,91.81
2023-01-26T06:34:28.167Z,91.55
2023-01-26T06:36:31.395Z,91.75
2023-01-26T06:38:36.152Z,91.64
2023-01-26T06:40:39.471Z,91.29
2023-01-26T06:42:49.254Z,91.82
2023-01-26T06:44:54.492Z,91.38
2023-01-26T06:46:58.766Z,91.55
2023-01-26T06:49:04.756Z,91.19
2023-01-26T06:51:44.404Z,91.34
2023-01-26T06:53:49.783Z,91.12
2023-01-26T06:56:28.289Z,91.35
2023-01-26T06:58:36.508Z,91.29
2023-01-26T07:00:43.009Z,91.23
2023-01-26T07:02:50.118Z,91.03
2023-01-26T07:04:55.283Z,91.33
2023-01-26T07:06:58.593Z,91.25
2023-01-26T07:09:02.073Z,91.52
2023-01-26T07:11:08.020Z,91.55
2023-01-26T07:13:13.519Z,91.56
2023-01-26T07:15:16.923Z,91.70
2023-01-26T07:17:20.262Z,91.59
2023-01-26T07:19:23.686Z,92.19
2023-01-26T07:21:28.537Z,91.99
2023-01-26T07:23:34.573Z,92.58
2023-01-26T07:25:38.306Z,92.76
2023-01-26T07:27:41.665Z,92.43
2023-01-26T07:29:46.579Z,92.55
2023-01-26T07:31:49.931Z,92.41
2023-01-26T07:33:53.274Z,92.34
2023-01-26T07:35:58.852Z,92.11
2023-01-26T07:38:05.179Z,92.07
2023-01-26T07:40:10.644Z,92.45
2023-01-26T07:42:14.965Z,92.23
2023-01-26T07:44:23.661Z,91.66
2023-01-26T07:46:27.353Z,92.14
2023-01-26T07:48:31.080Z,92.17
2023-01-26T07:50:34.438Z,92.44
2023-01-26T07:52:38.352Z,92.37
2023-01-26T07:54:43.274Z,92.15
2023-01-26T07:56:46.627Z,92.19
2023-01-26T07:58:51.499Z,92.31
2023-01-26T08:00:54.749Z,91.87
2023-01-26T08:02:58.157Z,92.38
2023-01-26T08:05:02.865Z,92.24
2023-01-26T08:07:06.310Z,92.47
2023-01-26T08:09:09.950Z,92.43
2023-01-26T08:11:14.631Z,92.28
2023-01-26T08:13:29.938Z,92.57
2023-01-26T08:15:37.799Z,93.02
2023-01-26T08:17:41.618Z,92.93
2023-01-26T08:19:45.690Z,92.83
2023-01-26T08:21:52.141Z,92.39
2023-01-26T08:23:56.133Z,92.71
2023-01-26T08:26:03.259Z,92.34
2023-01-26T08:28:08.855Z,92.38
2023-01-26T08:30:15.363Z,92.69
2023-01-26T08:32:19.858Z,92.33
2023-01-26T08:34:24.120Z,92.61
2023-01-26T08:36:28.994Z,92.57
2023-01-26T08:38:33.235Z,92.92
2023-01-26T08:40:38.241Z,92.93
2023-01-26T08:42:42.555Z,93.09
2023-01-26T08:44:48.637Z,92.80
2023-01-26T08:46:52.912Z,93.26
2023-01-26T08:49:00.150Z,93.26
2023-01-26T08:51:07.121Z,92.69
2023-01-26T08:53:11.517Z,92.70
2023-01-26T08:55:15.829Z,92.70
2023-01-26T08:57:20.339Z,93.48
2023-01-26T08:59:25.258Z,93.46
2023-01-26T09:01:31.236Z,92.90
2023-01-26T09:03:35.944Z,93.34
2023-01-26T09:05:41.513Z,93.16
2023-01-26T09:07:46.086Z,93.57
2023-01-26T09:09:50.764Z,93.06
2023-01-26T09:11:57.815Z,93.45
2023-01-26T09:14:02.413Z,93.60
2023-01-26T09:16:07.977Z,93.21
2023-01-26T09:18:21.782Z,93.30
2023-01-26T09:20:28.005Z,93.19
2023-01-26T09:22:32.795Z,92.61
2023-01-26T09:24:37.520Z,92.72
2023-01-26T09:26:41.981Z,92.71
2023-01-26T09:28:46.624Z,92.27
2023-01-26T09:30:51.394Z,92.15
2023-01-26T09:33:00.545Z,92.40
2023-01-26T09:35:14.309Z,92.30
2023-01-26T09:37:20.186Z,92.32
2023-01-26T09:39:24.738Z,92.34
2023-01-26T09:41:49.826Z,92.28
2023-01-26T09:43:59.188Z,92.33
2023-01-26T09:46:21.100Z,92.05
2023-01-26T09:48:51.750Z,92.18
2023-01-26T09:51:31.541Z,91.78
2023-01-26T09:57:15.656Z,91.75
2023-01-26T09:59:56.001Z,91.21
2023-01-26T10:02:10.824Z,91.23
2023-01-26T10:04:30.101Z,91.37
2023-01-26T10:06:38.800Z,91.32
2023-01-26T10:08:51.791Z,91.04
2023-01-26T10:10:59.461Z,91.28
2023-01-26T10:13:04.418Z,91.60
2023-01-26T10:15:20.457Z,91.38
2023-01-26T10:17:30.415Z,91.61
2023-01-26T10:19:38.893Z,91.76
2023-01-26T10:21:48.921Z,91.11
2023-01-26T10:23:54.285Z,91.27
2023-01-26T10:26:08.991Z,91.24
2023-01-26T10:28:15.871Z,91.16
2023-01-26T10:30:22.138Z,91.14
2023-01-26T10:32:26.598Z,91.59
2023-01-26T10:34:31.600Z,91.64
2023-01-26T10:36:35.982Z,91.30
2023-01-26T10:38:47.667Z,91.38
2023-01-26T10:40:52.084Z,91.21
2023-01-26T10:42:59.016Z,91.43
2023-01-26T10:45:05.032Z,91.56
2023-01-26T10:47:17.105Z,91.48
2023-01-26T10:49:22.385Z,91.24
2023-01-26T10:51:29.851Z,91.07
2023-01-26T10:53:33.500Z,90.91
2023-01-26T10:55:38.876Z,91.07
2023-01-26T10:57:44.506Z,90.89
2023-01-26T10:59:55.618Z,90.41
2023-01-26T11:02:03.508Z,90.59
2023-01-26T11:04:09.180Z,90.61
2023-01-26T11:06:17.371Z,90.21
2023-01-26T11:08:35.095Z,90.10
2023-01-26T11:10:52.638Z,90.04
2023-01-26T11:13:10.485Z,89.82
2023-01-26T11:15:19.758Z,89.79
2023-01-26T11:17:27.785Z,89.38
2023-01-26T11:19:58.746Z,89.38
2023-01-26T11:22:07.843Z,89.55
2023-01-26T11:24:21.541Z,89.81
2023-01-26T11:27:00.402Z,89.62
2023-01-26T11:29:20.079Z,89.81
2023-01-26T11:31:39.469Z,89.71
2023-01-26T11:33:52.726Z,89.97
2023-01-26T11:36:06.940Z,89.55
2023-01-26T11:38:31.592Z,89.70
2023-01-26T11:40:46.692Z,89.80
2023-01-26T11:43:02.451Z,90.13
2023-01-26T11:45:23.436Z,90.04
2023-01-26T11:47:55.962Z,90.01
2023-01-26T11:50:12.159Z,89.69
2023-01-26T11:52:25.785Z,89.82
2023-01-26T11:54:48.666Z,89.94
2023-01-26T11:57:05.629Z,89.92
2023-01-26T11:59:16.003Z,90.08
2023-01-26T12:01:29.289Z,90.14
2023-01-26T12:03:41.888Z,90.43
2023-01-26T12:05:50.955Z,90.44
2023-01-26T12:07:58.909Z,90.39
2023-01-26T12:10:04.443Z,90.70
2023-01-26T12:12:14.463Z,90.35
2023-01-26T12:14:26.606Z,90.32
2023-01-26T12:16:40.719Z,90.46
2023-01-26T12:19:05.434Z,90.52
2023-01-26T12:21:13.944Z,90.68
2023-01-26T12:23:28.999Z,90.80
2023-01-26T12:25:36.619Z,91.16
2023-01-26T12:27:46.072Z,91.30
2023-01-26T12:29:55.037Z,90.93
2023-01-26T12:32:04.276Z,90.85
2023-01-26T12:34:13.990Z,90.93
2023-01-26T12:36:28.247Z,91.12
2023-01-26T12:38:44.797Z,90.95
2023-01-26T12:41:04.718Z,90.83
2023-01-26T12:43:24.578Z,91.17
2023-01-26T12:45:36.638Z,90.78
2023-01-26T12:47:46.432Z,90.74
2023-01-26T12:49:56.747Z,91.09
2023-01-26T12:52:07.401Z,90.97
2023-01-26T12:54:18.574Z,91.41
2023-01-26T12:56:27.555Z,91.54
2023-01-26T12:58:35.485Z,90.93
2023-01-26T13:00:41.569Z,91.20
2023-01-26T13:02:47.946Z,90.64
2023-01-26T13:04:52.823Z,90.84
2023-01-26T13:07:05.051Z,90.61
2023-01-26T13:09:23.416Z,90.71
2023-01-26T13:11:45.121Z,90.70
2023-01-26T13:13:56.488Z,90.99
2023-01-26T13:16:35.638Z,91.09
2023-01-26T13:18:51.334Z,91.36
2023-01-26T13:20:55.028Z,91.04
2023-01-26T13:22:58.882Z,91.76
2023-01-26T13:25:16.154Z,91.58
2023-01-26T13:27:35.566Z,91.57
2023-01-26T13:29:55.792Z,91.71
2023-01-26T13:32:03.732Z,91.91
2023-01-26T13:34:11.279Z,91.61
2023-01-26T13:36:18.990Z,91.57
2023-01-26T13:38:32.808Z,91.91
2023-01-26T13:40:38.573Z,91.80
2023-01-26T13:42:54.097Z,92.04
2023-01-26T13:45:02.717Z,91.75
2023-01-26T13:47:13.230Z,91.77
2023-01-26T13:49:26.987Z,91.84
2023-01-26T13:51:32.768Z,91.99
2023-01-26T13:53:39.582Z,92.06
2023-01-26T13:55:45.030Z,92.20
2023-01-26T13:57:49.917Z,92.00
2023-01-26T13:59:55.543Z,92.13
2023-01-26T14:01:59.736Z,91.86
2023-01-26T14:04:07.355Z,91.68
2023-01-26T14:06:16.233Z,91.95
2023-01-26T14:08:22.705Z,91.91
2023-01-26T14:10:27.444Z,91.82
2023-01-26T14:12:35.580Z,91.74
2023-01-26T14:14:40.777Z,91.92
2023-01-26T14:16:44.924Z,91.42
2023-01-26T14:18:50.104Z,91.29
2023-01-26T14:21:02.241Z,91.07
2023-01-26T14:23:15.250Z,90.54
2023-01-26T14:25:21.969Z,90.92
2023-01-26T14:27:33.116Z,90.62
2023-01-26T14:29:39.209Z,90.35
2023-01-26T14:31:43.140Z,90.43
2023-01-26T14:33:47.576Z,90.16
2023-01-26T14:35:59.078Z,90.77
2023-01-26T14:38:18.351Z,90.44
2023-01-26T14:40:24.862Z,89.83
2023-01-26T14:42:29.243Z,89.87
2023-01-26T14:44:33.914Z,89.58
2023-01-26T14:46:46.569Z,89.11
2023-01-26T14:48:56.482Z,89.24
2023-01-26T14:51:02.051Z,88.64
2023-01-26T14:53:07.337Z,88.63
2023-01-26T14:55:19.333Z,88.45
2023-01-26T14:57:25.796Z,88.17
2023-01-26T14:59:35.445Z,88.06
2023-01-26T15:01:40.000Z,87.89
2023-01-26T15:03:44.619Z,87.65
2023-01-26T15:05:49.093Z,87.58
2023-01-26T15:07:57.110Z,87.94
2023-01-26T15:10:01.641Z,88.29
2023-01-26T15:12:17.301Z,88.16
2023-01-26T15:14:50.260Z,88.31
2023-01-26T15:16:55.469Z,88.58
2023-01-26T15:19:01.480Z,88.75
2023-01-26T15:21:15.270Z,89.17
2023-01-26T15:23:27.822Z,88.67
2023-01-26T15:25:35.317Z,89.28
2023-01-26T15:27:41.405Z,89.07
2023-01-26T15:29:46.315Z,88.93
2023-01-26T15:31:56.336Z,88.49
2023-01-26T15:34:01.850Z,89.17
2023-01-26T15:36:07.143Z,89.25
2023-01-26T15:38:13.383Z,89.52
2023-01-26T15:40:18.248Z,89.78
2023-01-26T15:42:25.128Z,90.03
2023-01-26T15:44:31.623Z,89.85
2023-01-26T15:46:36.097Z,90.25
2023-01-26T15:48:40.282Z,90.37
2023-01-26T15:50:44.666Z,90.42
2023-01-26T15:52:49.402Z,90.31
2023-01-26T15:54:54.311Z,90.43
2023-01-26T15:56:58.842Z,90.56
2023-01-26T15:59:02.999Z,90.44
2023-01-26T16:01:09.494Z,90.47
2023-01-26T16:03:16.862Z,91.06
2023-01-26T16:05:23.539Z,90.79
2023-01-26T16:07:28.573Z,90.91
2023-01-26T16:09:32.970Z,90.93
2023-01-26T16:11:42.155Z,90.90
2023-01-26T16:14:01.975Z,91.18
2023-01-26T16:16:11.798Z,91.31
2023-01-26T16:18:16.757Z,91.33
2023-01-26T16:20:21.319Z,91.21
2023-01-26T16:22:25.631Z,91.67
2023-01-26T16:24:29.235Z,91.78
2023-01-26T16:26:33.261Z,92.04
2023-01-26T16:28:36.884Z,91.97
2023-01-26T16:30:41.215Z,92.21
2023-01-26T16:32:46.407Z,92.43
2023-01-26T16:34:49.746Z,92.54
2023-01-26T16:36:53.399Z,92.70
2023-01-26T16:38:57.007Z,92.82
2023-01-26T16:41:00.663Z,93.23
2023-01-26T16:43:04.522Z,93.23
2023-01-26T16:45:15.524Z,93.47
2023-01-26T16:47:19.357Z,93.61
2023-01-26T16:49:25.786Z,93.58
2023-01-26T16:51:32.332Z,93.93
2023-01-26T16:53:36.330Z,93.95
2023-01-26T16:55:40.261Z,94.49
2023-01-26T16:57:45.162Z,94.57
2023-01-26T16:59:48.804Z,94.80
2023-01-26T17:01:52.319Z,94.93
2023-01-26T17:03:57.272Z,95.06
2023-01-26T17:06:02.327Z,95.37
2023-01-26T17:08:06.403Z,95.63
2023-01-26T17:10:11.907Z,95.69
2023-01-26T17:12:15.761Z,95.77
2023-01-26T17:14:19.330Z,95.70
2023-01-26T17:16:26.175Z,95.93
2023-01-26T17:18:29.757Z,95.72
2023-01-26T17:20:33.336Z,96.12
2023-01-26T17:22:38.543Z,96.00
2023-01-26T17:24:42.841Z,96.09
2023-01-26T17:26:46.768Z,96.59
2023-01-26T17:28:54.219Z,96.22
2023-01-26T17:31:00.833Z,96.65
2023-01-26T17:33:04.917Z,96.64
2023-01-26T17:35:09.327Z,96.83
2023-01-26T17:37:13.068Z,96.58
2023-01-26T17:39:19.027Z,96.72
2023-01-26T17:41:22.939Z,97.06
2023-01-26T17:43:27.158Z,96.94
2023-01-26T17:45:31.142Z,96.89
2023-01-26T17:47:35.198Z,97.19
2023-01-26T17:49:39.259Z,96.84
2023-01-26T17:51:47.092Z,96.94
2023-01-26T17:53:51.634Z,97.13
2023-01-26T17:55:57.139Z,97.21
2023-01-26T17:58:01.213Z,97.20
2023-01-26T18:00:07.170Z,97.28
2023-01-26T18:02:12.592Z,97.42
2023-01-26T18:04:16.944Z,97.20
2023-01-26T18:06:20.882Z,97.23
2023-01-26T18:08:24.999Z,96.79
2023-01-26T18:10:31.101Z,97.24
2023-01-26T18:12:38.133Z,97.34
2023-01-26T18:14:42.505Z,97.22
2023-01-26T18:16:47.590Z,97.34
2023-01-26T18:18:57.124Z,97.50
2023-01-26T18:21:12.253Z,97.65
2023-01-26T18:23:16.424Z,97.51
2023-01-26T18:25:21.884Z,97.57
2023-01-26T18:27:26.522Z,97.45
2023-01-26T18:29:32.013Z,97.59
2023-01-26T18:31:37.376Z,97.67
2023-01-26T18:33:41.464Z,97.58
2023-01-26T18:35:45.258Z,97.66
2023-01-26T18:37:48.837Z,97.70
2023-01-26T18:39:53.157Z,98.10
2023-01-26T18:41:57.459Z,97.96
2023-01-26T18:44:03.400Z,98.08
2023-01-26T18:46:09.565Z,97.96
2023-01-26T18:48:14.653Z,98.02
2023-01-26T18:50:18.989Z,98.20
2023-01-26T18:52:23.521Z,97.99
2023-01-26T18:54:27.628Z,98.25
2023-01-26T18:56:32.796Z,98.01
2023-01-26T18:58:37.848Z,98.15
2023-01-26T19:00:41.859Z,98.11
2023-01-26T19:02:47.063Z,98.02
2023-01-26T19:04:53.647Z,98.12
2023-01-26T19:06:57.527Z,97.93
2023-01-26T19:09:03.624Z,98.15
2023-01-26T19:11:09.668Z,98.21
2023-01-26T19:13:13.449Z,98.32
2023-01-26T19:15:17.290Z,98.26
2023-01-26T19:17:21.315Z,98.36
2023-01-26T19:19:26.888Z,98.37
2023-01-26T19:21:31.840Z,98.35
2023-01-26T19:23:40.282Z,98.51
2023-01-26T19:25:44.154Z,98.78
2023-01-26T19:27:48.618Z,98.71
2023-01-26T19:29:54.476Z,98.96
2023-01-26T19:31:58.693Z,98.45
2023-01-26T19:34:04.885Z,98.50
2023-01-26T19:36:12.253Z,98.60
2023-01-26T19:38:17.238Z,98.70
2023-01-26T19:40:21.756Z,98.60
2023-01-26T19:42:26.291Z,98.61
2023-01-26T19:44:30.054Z,98.74
2023-01-26T19:46:35.086Z,98.92
2023-01-26T19:48:42.971Z,98.66
2023-01-26T19:50:47.183Z,98.79
2023-01-26T19:52:52.527Z,98.45
2023-01-26T19:54:56.906Z,98.83
2023-01-26T19:57:00.692Z,98.43
2023-01-26T19:59:06.851Z,98.85
2023-01-26T20:01:13.138Z,98.56
2023-01-26T20:03:19.680Z,98.65
2023-01-26T20:05:24.539Z,98.65
2023-01-26T20:07:28.827Z,98.51
2023-01-26T20:09:37.095Z,98.63
2023-01-26T20:11:41.379Z,98.61
2023-01-26T20:13:45.995Z,98.70
2023-01-26T20:15:50.550Z,98.65
2023-01-26T20:17:54.463Z,98.83
2023-01-26T20:19:58.720Z,98.60
2023-01-26T20:22:02.999Z,98.89
2023-01-26T20:24:08.698Z,98.65
2023-01-26T20:26:14.886Z,98.55
2023-01-26T20:28:20.125Z,98.95
2023-01-26T20:30:25.814Z,99.05
2023-01-26T20:32:30.682Z,99.30
2023-01-26T20:34:36.174Z,99.49
2023-01-26T20:36:44.422Z,99.31
2023-01-26T20:38:49.957Z,99.45
2023-01-26T20:40:54.219Z,99.67
2023-01-26T20:43:00.234Z,99.64
2023-01-26T20:45:05.226Z,99.79
2023-01-26T20:47:10.514Z,99.45
2023-01-26T20:49:17.557Z,99.72
2023-01-26T20:51:24.678Z,99.71
2023-01-26T20:53:29.119Z,99.81
2023-01-26T20:55:34.446Z,100.00
2023-01-26T20:57:40.717Z,100.00
2023-01-26T20:59:47.892Z,100.00
2023-01-26T21:01:53.413Z,100.00
2023-01-26T21:03:58.702Z,100.00
2023-01-26T21:06:04.210Z,100.00
2023-01-26T21:08:09.280Z,99.98
2023-01-26T21:10:14.868Z,100.00
2023-01-26T21:12:20.276Z,100.00
2023-01-26T21:14:24.353Z,100.00
2023-01-26T21:16:31.052Z,100.00
2023-01-26T21:18:36.233Z,100.00
2023-01-26T21:20:40.656Z,100.00
2023-01-26T21:22:46.314Z,100.00
2023-01-26T21:24:50.108Z,100.00
2023-01-26T21:26:58.536Z,100.00
2023-01-26T21:29:04.754Z,100.00
2023-01-26T21:31:11.657Z,100.00
2023-01-26T21:33:18.659Z,100.00
2023-01-26T21:35:23.764Z,100.00
2023-01-26T21:37:34.357Z,100.00
2023-01-26T21:39:40.403Z,100.00
2023-01-26T21:41:57.294Z,100.00
2023-01-26T21:44:03.885Z,100.00
2023-01-26T21:46:12.924Z,100.00
2023-01-26T21:48:31.989Z,100.00
2023-01-26T21:50:58.920Z,100.00
2023-01-26T21:53:03.323Z,100.00
2023-01-26T21:55:08.565Z,100.00
2023-01-26T21:57:32.632Z,100.00
2023-01-26T21:59:38.453Z,100.00
2023-01-26T22:01:45.920Z,100.00
2023-01-26T22:03:52.629Z,100.00
2023-01-26T22:05:57.214Z,100.00
2023-01-26T22:08:02.227Z,100.00
2023-01-26T22:10:08.977Z,100.00
2023-01-26T22:12:13.652Z,100.00
2023-01-26T22:14:21.340Z,100.00
2023-01-26T22:16:26.254Z,100.00
2023-01-26T22:18:30.716Z,100.00
2023-01-26T22:20:37.307Z,100.00
2023-01-26T22:22:41.924Z,100.00
2023-01-26T22:24:46.388Z,100.00
2023-01-26T22:26:50.952Z,100.00
2023-01-26T22:28:57.323Z,99.88
2023-01-26T22:31:04.028Z,99.82
2023-01-26T22:33:08.642Z,100.00
2023-01-26T22:35:13.203Z,99.58
2023-01-26T22:37:18.990Z,99.93
2023-01-26T22:39:23.334Z,99.34
2023-01-26T22:41:29.050Z,99.29
2023-01-26T22:43:34.023Z,99.63
2023-01-26T22:45:38.290Z,99.22
2023-01-26T22:47:43.980Z,99.30
2023-01-26T22:49:48.786Z,99.02
2023-01-26T22:51:53.466Z,98.57
2023-01-26T22:54:01.298Z,98.49
2023-01-26T22:56:07.994Z,98.70
2023-01-26T22:58:13.342Z,98.95
2023-01-26T23:00:23.536Z,98.62
2023-01-26T23:02:31.013Z,98.41
2023-01-26T23:04:35.261Z,98.08
2023-01-26T23:06:39.556Z,98.19
2023-01-26T23:08:43.903Z,97.88
2023-01-26T23:10:49.564Z,98.11
2023-01-26T23:12:53.677Z,97.66
2023-01-26T23:14:59.830Z,98.13
2023-01-26T23:17:05.398Z,97.84
2023-01-26T23:19:09.619Z,97.62
2023-01-26T23:21:17.975Z,97.67
2023-01-26T23:23:25.699Z,97.39
2023-01-26T23:25:52.978Z,97.62
2023-01-26T23:28:09.977Z,97.35
2023-01-26T23:30:35.860Z,97.37
2023-01-26T23:32:57.208Z,97.65
2023-01-26T23:35:04.247Z,97.70
2023-01-26T23:37:08.455Z,97.93
2023-01-26T23:39:12.866Z,97.69
2023-01-26T23:41:17.222Z,97.75
2023-01-26T23:43:24.093Z,97.76
2023-01-26T23:45:41.777Z,98.11
2023-01-26T23:47:52.113Z,97.90
2023-01-26T23:49:57.306Z,98.35
2023-01-26T23:52:04.618Z,98.47
2023-01-26T23:54:12.916Z,98.82
2023-01-26T23:56:23.091Z,98.55
2023-01-26T23:58:53.279Z,98.64
